createdAt,value
2022-09-09T00:00:26.307Z,99.90
2022-09-09T00:02:34.812Z,99.90
2022-09-09T00:04:44.044Z,99.90
2022-09-09T00:07:01.466Z,99.90
2022-09-09T00:09:16.533Z,99.90
2022-09-09T00:11:33.400Z,99.90
2022-09-09T00:13:47.997Z,99.90
2022-09-09T00:16:03.984Z,99.90
2022-09-09T00:18:22.338Z,99.90
2022-09-09T00:20:35.998Z,99.90
2022-09-09T00:22:50.670Z,99.90
2022-09-09T00:24:58.924Z,99.90
2022-09-09T00:27:10.559Z,99.90
2022-09-09T00:29:24.092Z,99.90
2022-09-09T00:31:33.576Z,99.90
2022-09-09T00:33:43.321Z,99.90
2022-09-09T00:35:53.892Z,99.90
2022-09-09T00:38:04.793Z,99.90
2022-09-09T00:40:29.589Z,99.90
2022-09-09T00:42:45.631Z,99.90
2022-09-09T00:45:04.129Z,99.90
2022-09-09T00:47:23.131Z,99.90
2022-09-09T00:49:40.355Z,99.90
2022-09-09T00:51:57.521Z,99.90
2022-09-09T00:54:31.991Z,99.90
2022-09-09T00:56:45.314Z,99.90
2022-09-09T00:59:04.340Z,99.90
2022-09-09T01:01:15.881Z,99.90
2022-09-09T01:03:33.288Z,99.90
2022-09-09T01:05:49.634Z,99.90
2022-09-09T01:07:58.465Z,99.90
2022-09-09T01:10:11.108Z,99.90
2022-09-09T01:12:20.956Z,99.90
2022-09-09T01:14:46.513Z,99.90
2022-09-09T01:16:59.983Z,99.90
2022-09-09T01:19:12.091Z,99.90
2022-09-09T01:21:29.671Z,99.90
2022-09-09T01:23:56.727Z,99.90
2022-09-09T01:26:22.371Z,99.90
2022-09-09T01:28:33.092Z,99.90
2022-09-09T01:30:46.411Z,99.90
2022-09-09T01:33:01.027Z,99.90
2022-09-09T01:35:10.012Z,99.90
2022-09-09T01:37:17.801Z,99.90
2022-09-09T01:39:25.537Z,99.90
2022-09-09T01:41:42.808Z,99.90
2022-09-09T01:43:54.135Z,99.90
2022-09-09T01:46:05.494Z,99.90
2022-09-09T01:48:13.991Z,99.90
2022-09-09T01:50:25.870Z,99.90
2022-09-09T01:52:33.106Z,99.90
2022-09-09T01:54:41.169Z,99.90
2022-09-09T01:57:06.358Z,99.90
2022-09-09T01:59:28.740Z,99.90
2022-09-09T02:01:50.676Z,99.90
2022-09-09T02:04:01.080Z,99.90
2022-09-09T02:06:17.159Z,99.90
2022-09-09T02:08:29.447Z,99.90
2022-09-09T02:10:50.537Z,99.90
2022-09-09T02:13:16.558Z,99.90
2022-09-09T02:15:31.110Z,99.90
2022-09-09T02:17:42.438Z,99.90
2022-09-09T02:19:59.139Z,99.90
2022-09-09T02:22:20.707Z,99.90
2022-09-09T02:24:28.314Z,99.90
2022-09-09T02:26:49.313Z,99.90
2022-09-09T02:29:03.761Z,99.90
2022-09-09T02:31:11.319Z,99.90
2022-09-09T02:33:21.717Z,99.90
2022-09-09T02:35:33.292Z,99.90
2022-09-09T02:37:42.434Z,99.90
2022-09-09T02:39:50.580Z,99.90
2022-09-09T02:42:00.682Z,99.90
2022-09-09T02:44:17.426Z,99.90
2022-09-09T02:46:45.605Z,99.90
2022-09-09T02:48:59.440Z,99.90
2022-09-09T02:51:18.148Z,99.90
2022-09-09T02:53:34.397Z,99.90
2022-09-09T02:55:46.255Z,99.90
2022-09-09T02:57:55.288Z,99.90
2022-09-09T03:00:04.952Z,99.90
2022-09-09T03:02:15.304Z,99.90
2022-09-09T03:04:27.100Z,99.90
2022-09-09T03:06:34.436Z,99.90
2022-09-09T03:08:52.002Z,99.90
2022-09-09T03:11:05.288Z,99.90
2022-09-09T03:13:17.374Z,99.90
2022-09-09T03:15:26.549Z,99.90
2022-09-09T03:17:33.570Z,99.90
2022-09-09T03:19:40.443Z,99.90
2022-09-09T03:21:49.027Z,99.90
2022-09-09T03:23:56.096Z,99.90
2022-09-09T03:26:03.134Z,99.90
2022-09-09T03:28:19.570Z,99.90
2022-09-09T03:30:29.890Z,99.90
2022-09-09T03:32:37.182Z,99.90
2022-09-09T03:34:44.702Z,99.90
2022-09-09T03:36:53.993Z,99.90
2022-09-09T03:39:01.061Z,99.90
2022-09-09T03:41:11.000Z,99.90
2022-09-09T03:43:19.978Z,99.90
2022-09-09T03:45:28.796Z,99.90
2022-09-09T03:47:36.086Z,99.90
2022-09-09T03:49:45.717Z,99.90
2022-09-09T03:51:53.056Z,99.90
2022-09-09T03:54:00.796Z,99.90
2022-09-09T03:56:10.654Z,99.90
2022-09-09T03:58:20.745Z,99.90
2022-09-09T04:00:29.412Z,99.90
2022-09-09T04:02:36.742Z,99.90
2022-09-09T04:04:43.675Z,99.90
2022-09-09T04:06:50.902Z,99.90
2022-09-09T04:08:58.194Z,99.90
2022-09-09T04:11:08.499Z,99.90
2022-09-09T04:13:18.230Z,99.90
2022-09-09T04:15:25.728Z,99.90
2022-09-09T04:17:35.113Z,99.90
2022-09-09T04:19:42.387Z,99.90
2022-09-09T04:21:51.156Z,99.90
2022-09-09T04:23:59.831Z,99.90
2022-09-09T04:26:07.773Z,99.90
2022-09-09T04:28:14.961Z,99.90
2022-09-09T04:30:23.167Z,99.90
2022-09-09T04:32:30.404Z,99.90
2022-09-09T04:34:40.340Z,99.90
2022-09-09T04:36:47.992Z,99.90
2022-09-09T04:38:55.227Z,99.90
2022-09-09T04:41:02.199Z,99.90
2022-09-09T04:43:12.599Z,99.90
2022-09-09T04:45:23.048Z,99.90
2022-09-09T04:47:31.067Z,99.90
2022-09-09T04:49:40.344Z,99.90
2022-09-09T04:51:49.230Z,99.90
2022-09-09T04:53:57.625Z,99.90
2022-09-09T04:56:09.121Z,99.90
2022-09-09T04:58:20.488Z,99.90
2022-09-09T05:00:27.827Z,99.90
2022-09-09T05:02:35.913Z,99.90
2022-09-09T05:04:44.747Z,99.90
2022-09-09T05:06:53.212Z,99.90
2022-09-09T05:09:00.236Z,99.90
2022-09-09T05:11:17.606Z,99.90
2022-09-09T05:13:25.005Z,99.90
2022-09-09T05:15:32.022Z,99.80
2022-09-09T05:17:39.563Z,99.90
2022-09-09T05:19:48.952Z,99.90
2022-09-09T05:21:56.590Z,99.90
2022-09-09T05:24:12.006Z,99.90
2022-09-09T05:26:21.088Z,99.90
2022-09-09T05:28:31.294Z,99.90
2022-09-09T05:30:38.322Z,99.60
2022-09-09T05:32:47.081Z,99.80
2022-09-09T05:34:56.012Z,99.90
2022-09-09T05:37:03.391Z,99.90
2022-09-09T05:39:10.376Z,99.90
2022-09-09T05:41:19.247Z,99.90
2022-09-09T05:43:27.903Z,99.90
2022-09-09T05:45:36.065Z,99.90
2022-09-09T05:47:43.354Z,99.90
2022-09-09T05:49:55.910Z,99.90
2022-09-09T05:52:03.500Z,99.90
2022-09-09T05:54:10.683Z,99.90
2022-09-09T05:56:26.001Z,99.90
2022-09-09T05:58:33.237Z,99.90
2022-09-09T06:00:40.880Z,99.90
2022-09-09T06:02:48.071Z,99.60
2022-09-09T06:05:00.582Z,99.30
2022-09-09T06:07:09.692Z,99.00
2022-09-09T06:09:17.487Z,99.30
2022-09-09T06:11:25.744Z,99.50
2022-09-09T06:13:33.337Z,99.60
2022-09-09T06:15:40.364Z,99.70
2022-09-09T06:17:47.555Z,99.90
2022-09-09T06:19:56.618Z,99.90
2022-09-09T06:22:03.703Z,99.70
2022-09-09T06:24:15.953Z,99.50
2022-09-09T06:26:24.825Z,99.30
2022-09-09T06:28:33.288Z,99.40
2022-09-09T06:30:40.723Z,99.30
2022-09-09T06:32:47.905Z,99.30
2022-09-09T06:34:56.778Z,99.40
2022-09-09T06:37:04.172Z,99.50
2022-09-09T06:39:18.401Z,99.80
2022-09-09T06:41:29.227Z,99.90
2022-09-09T06:43:37.382Z,99.90
2022-09-09T06:45:44.664Z,99.90
2022-09-09T06:47:52.405Z,99.90
2022-09-09T06:50:02.100Z,99.90
2022-09-09T06:52:11.291Z,99.90
2022-09-09T06:54:19.427Z,99.90
2022-09-09T06:56:29.529Z,99.90
2022-09-09T06:58:38.098Z,99.90
2022-09-09T07:00:45.538Z,99.90
2022-09-09T07:02:53.121Z,99.90
2022-09-09T07:05:02.764Z,99.90
2022-09-09T07:07:10.254Z,99.90
2022-09-09T07:09:19.586Z,99.90
2022-09-09T07:11:32.965Z,99.90
2022-09-09T07:13:40.400Z,99.90
2022-09-09T07:15:48.029Z,99.90
2022-09-09T07:17:56.087Z,99.90
2022-09-09T07:20:05.988Z,99.90
2022-09-09T07:22:13.270Z,99.90
2022-09-09T07:24:21.326Z,99.90
2022-09-09T07:26:31.113Z,99.90
2022-09-09T07:28:40.704Z,99.90
2022-09-09T07:30:56.868Z,99.90
2022-09-09T07:33:05.560Z,99.90
2022-09-09T07:35:14.902Z,99.90
2022-09-09T07:37:22.021Z,99.90
2022-09-09T07:39:29.422Z,99.90
2022-09-09T07:41:38.247Z,99.90
2022-09-09T07:43:46.180Z,99.90
2022-09-09T07:46:01.179Z,99.90
2022-09-09T07:48:10.025Z,99.90
2022-09-09T07:50:19.150Z,99.90
2022-09-09T07:52:26.483Z,99.90
2022-09-09T07:54:37.042Z,99.90
2022-09-09T07:56:46.377Z,99.90
2022-09-09T07:58:55.246Z,99.90
2022-09-09T08:01:02.789Z,99.90
2022-09-09T08:03:12.369Z,99.90
2022-09-09T08:05:21.811Z,99.90
2022-09-09T08:07:29.810Z,99.90
2022-09-09T08:09:36.997Z,99.90
2022-09-09T08:11:53.700Z,99.90
2022-09-09T08:14:02.523Z,99.90
2022-09-09T08:16:13.042Z,99.90
2022-09-09T08:18:21.479Z,99.90
2022-09-09T08:20:30.462Z,99.90
2022-09-09T08:22:39.846Z,99.90
2022-09-09T08:24:48.461Z,99.90
2022-09-09T08:26:55.691Z,99.90
2022-09-09T08:29:05.689Z,99.80
2022-09-09T08:31:18.478Z,99.70
2022-09-09T08:33:27.376Z,99.90
2022-09-09T08:35:36.259Z,99.70
2022-09-09T08:37:43.583Z,99.50
2022-09-09T08:39:53.967Z,99.30
2022-09-09T08:42:22.066Z,99.20
2022-09-09T08:44:43.447Z,99.00
2022-09-09T08:47:00.548Z,99.00
2022-09-09T08:49:18.225Z,98.90
2022-09-09T08:51:30.829Z,99.10
2022-09-09T08:53:46.753Z,99.10
2022-09-09T08:55:57.476Z,98.90
2022-09-09T08:58:17.212Z,98.70
2022-09-09T09:00:32.375Z,98.70
2022-09-09T09:02:46.988Z,98.80
2022-09-09T09:05:09.680Z,98.80
2022-09-09T09:07:23.452Z,98.70
2022-09-09T09:09:38.218Z,98.60
2022-09-09T09:11:49.697Z,98.80
2022-09-09T09:14:02.100Z,98.80
2022-09-09T09:16:21.741Z,98.80
2022-09-09T09:18:31.008Z,98.90
2022-09-09T09:20:45.409Z,98.90
2022-09-09T09:22:56.280Z,98.70
2022-09-09T09:25:12.829Z,98.60
2022-09-09T09:27:34.837Z,98.70
2022-09-09T09:30:10.087Z,98.70
2022-09-09T09:32:17.793Z,98.80
2022-09-09T09:34:25.598Z,99.00
2022-09-09T09:36:43.518Z,99.00
2022-09-09T09:41:39.411Z,99.20
2022-09-09T09:43:57.649Z,99.20
2022-09-09T09:46:17.142Z,99.20
2022-09-09T09:48:25.116Z,99.00
2022-09-09T09:50:33.849Z,99.20
2022-09-09T09:52:42.967Z,99.80
2022-09-09T09:54:52.551Z,99.90
2022-09-09T09:57:01.276Z,99.90
2022-09-09T09:59:17.815Z,99.90
2022-09-09T10:01:35.432Z,99.90
2022-09-09T10:03:56.816Z,99.90
2022-09-09T10:06:04.300Z,99.90
2022-09-09T10:08:16.337Z,99.90
2022-09-09T10:10:31.264Z,99.90
2022-09-09T10:12:51.906Z,99.90
2022-09-09T10:15:08.150Z,99.90
2022-09-09T10:17:25.981Z,99.90
2022-09-09T10:19:36.692Z,99.90
2022-09-09T10:22:13.270Z,99.90
2022-09-09T10:24:53.318Z,99.90
2022-09-09T10:27:09.919Z,99.90
2022-09-09T10:29:39.936Z,99.90
2022-09-09T10:31:55.260Z,99.90
2022-09-09T10:34:10.015Z,99.90
2022-09-09T10:36:22.066Z,99.90
2022-09-09T10:38:35.079Z,99.90
2022-09-09T10:40:47.181Z,99.90
2022-09-09T10:42:57.436Z,99.90
2022-09-09T10:45:20.027Z,99.90
2022-09-09T10:47:46.360Z,99.90
2022-09-09T10:50:12.792Z,99.90
2022-09-09T10:52:28.060Z,99.90
2022-09-09T10:54:44.208Z,99.90
2022-09-09T10:56:59.320Z,99.90
2022-09-09T10:59:14.439Z,99.90
2022-09-09T11:01:26.445Z,99.90
2022-09-09T11:03:35.559Z,99.90
2022-09-09T11:05:47.758Z,99.90
2022-09-09T11:08:00.211Z,99.90
2022-09-09T11:10:11.962Z,99.90
2022-09-09T11:12:23.692Z,99.90
2022-09-09T11:14:37.879Z,99.90
2022-09-09T11:16:52.130Z,99.90
2022-09-09T11:19:05.050Z,99.90
2022-09-09T11:21:21.348Z,99.90
2022-09-09T11:23:33.238Z,99.90
2022-09-09T11:25:44.309Z,99.90
2022-09-09T11:28:08.795Z,99.90
2022-09-09T11:30:53.835Z,99.90
2022-09-09T11:33:21.695Z,99.90
2022-09-09T11:35:50.474Z,99.90
2022-09-09T11:38:13.321Z,99.90
2022-09-09T11:40:25.471Z,99.90
2022-09-09T11:42:33.007Z,99.90
2022-09-09T11:44:40.344Z,99.90
2022-09-09T11:46:54.234Z,99.90
2022-09-09T11:49:05.612Z,99.90
2022-09-09T11:51:17.129Z,99.90
2022-09-09T11:53:28.584Z,99.90
2022-09-09T11:55:36.883Z,99.90
2022-09-09T11:57:48.997Z,99.90
2022-09-09T11:59:57.394Z,99.90
2022-09-09T12:02:09.260Z,99.90
2022-09-09T12:04:41.817Z,99.90
2022-09-09T12:06:52.927Z,99.90
2022-09-09T12:09:19.831Z,99.90
2022-09-09T12:11:30.797Z,99.90
2022-09-09T12:13:38.802Z,99.90
2022-09-09T12:15:53.971Z,99.90
2022-09-09T12:18:04.580Z,99.90
2022-09-09T12:20:19.546Z,99.90
2022-09-09T12:22:39.377Z,99.90
2022-09-09T12:24:54.176Z,99.90
2022-09-09T12:27:07.237Z,99.90
2022-09-09T12:29:31.175Z,99.90
2022-09-09T12:31:45.832Z,99.90
2022-09-09T12:33:54.858Z,99.90
2022-09-09T12:36:04.192Z,99.90
2022-09-09T12:38:17.669Z,99.90
2022-09-09T12:40:26.790Z,99.90
2022-09-09T12:42:39.229Z,99.90
2022-09-09T12:44:57.384Z,99.90
2022-09-09T12:47:07.340Z,99.90
2022-09-09T12:49:36.442Z,99.90
2022-09-09T12:51:47.603Z,99.90
2022-09-09T12:53:55.353Z,99.90
2022-09-09T12:56:04.840Z,99.90
2022-09-09T12:58:17.961Z,99.90
2022-09-09T13:00:26.882Z,99.90
2022-09-09T13:02:34.317Z,99.90
2022-09-09T13:04:43.754Z,99.90
2022-09-09T13:06:51.388Z,99.90
2022-09-09T13:09:00.679Z,99.90
2022-09-09T13:11:12.416Z,99.90
2022-09-09T13:13:19.396Z,99.90
2022-09-09T13:15:28.871Z,99.90
2022-09-09T13:17:36.775Z,99.90
2022-09-09T13:19:49.487Z,99.90
2022-09-09T13:21:56.825Z,99.90
2022-09-09T13:24:05.489Z,99.90
2022-09-09T13:26:26.189Z,99.90
2022-09-09T13:28:35.163Z,99.90
2022-09-09T13:30:45.007Z,99.90
2022-09-09T13:32:52.385Z,99.90
2022-09-09T13:35:02.387Z,99.90
2022-09-09T13:37:10.961Z,99.90
2022-09-09T13:39:21.884Z,99.90
2022-09-09T13:41:33.614Z,99.90
2022-09-09T13:43:42.585Z,99.90
2022-09-09T13:45:58.666Z,99.90
2022-09-09T13:48:16.113Z,99.90
2022-09-09T13:50:29.321Z,99.90
2022-09-09T13:52:36.546Z,99.90
2022-09-09T13:54:44.296Z,99.90
2022-09-09T13:56:52.202Z,99.90
2022-09-09T13:58:59.888Z,99.90
2022-09-09T14:01:07.677Z,99.90
2022-09-09T14:03:14.967Z,99.90
2022-09-09T14:05:22.972Z,99.90
2022-09-09T14:07:32.405Z,99.90
2022-09-09T14:09:39.589Z,99.90
2022-09-09T14:11:47.387Z,99.90
2022-09-09T14:13:54.612Z,99.90
2022-09-09T14:16:01.655Z,99.90
2022-09-09T14:18:09.236Z,99.90
2022-09-09T14:20:17.608Z,99.90
2022-09-09T14:22:25.545Z,99.90
2022-09-09T14:24:35.073Z,99.90
2022-09-09T14:26:42.921Z,99.90
2022-09-09T14:28:57.711Z,99.90
2022-09-09T14:31:09.816Z,99.90
2022-09-09T14:33:18.344Z,99.90
2022-09-09T14:35:26.760Z,99.90
2022-09-09T14:37:34.039Z,99.90
2022-09-09T14:39:43.104Z,99.90
2022-09-09T14:41:50.150Z,99.90
2022-09-09T14:43:57.584Z,99.90
2022-09-09T14:46:10.837Z,99.90
2022-09-09T14:48:18.617Z,99.90
2022-09-09T14:50:26.503Z,99.90
2022-09-09T14:52:34.865Z,99.90
2022-09-09T14:54:43.684Z,99.90
2022-09-09T14:56:50.814Z,99.90
2022-09-09T14:58:59.070Z,99.90
2022-09-09T15:01:12.136Z,99.90
2022-09-09T15:03:19.268Z,99.90
2022-09-09T15:05:26.499Z,99.90
2022-09-09T15:07:34.041Z,99.90
2022-09-09T15:09:42.924Z,99.90
2022-09-09T15:11:49.739Z,99.90
2022-09-09T15:13:57.680Z,99.90
2022-09-09T15:16:09.551Z,99.90
2022-09-09T15:18:18.196Z,99.90
2022-09-09T15:20:25.120Z,99.90
2022-09-09T15:22:32.138Z,99.90
2022-09-09T15:24:39.427Z,99.90
2022-09-09T15:26:48.099Z,99.90
2022-09-09T15:28:55.330Z,99.90
2022-09-09T15:31:03.143Z,99.90
2022-09-09T15:33:13.279Z,99.90
2022-09-09T15:35:20.860Z,99.90
2022-09-09T15:37:27.757Z,99.90
2022-09-09T15:39:38.585Z,99.90
2022-09-09T15:41:48.089Z,99.90
2022-09-09T15:43:58.812Z,99.90
2022-09-09T15:46:29.357Z,99.90
2022-09-09T15:50:48.829Z,99.90
2022-09-09T15:52:56.108Z,99.90
2022-09-09T15:55:03.140Z,99.90
2022-09-09T15:57:14.981Z,99.90
2022-09-09T15:59:22.563Z,99.90
2022-09-09T16:01:31.056Z,99.90
2022-09-09T16:03:41.718Z,99.90
2022-09-09T16:05:56.144Z,99.90
2022-09-09T16:08:03.172Z,99.90
2022-09-09T16:10:11.020Z,99.90
2022-09-09T16:12:19.996Z,99.90
2022-09-09T16:14:27.226Z,99.90
2022-09-09T16:16:35.172Z,99.90
2022-09-09T16:18:43.687Z,99.90
2022-09-09T16:20:59.015Z,99.90
2022-09-09T16:23:05.936Z,99.90
2022-09-09T16:25:14.194Z,99.90
2022-09-09T16:27:23.014Z,99.90
2022-09-09T16:29:30.550Z,99.90
2022-09-09T16:31:37.606Z,99.90
2022-09-09T16:33:45.424Z,99.90
2022-09-09T16:35:53.064Z,99.90
2022-09-09T16:38:00.308Z,99.90
2022-09-09T16:40:08.114Z,99.90
2022-09-09T16:42:15.588Z,99.90
2022-09-09T16:44:24.512Z,99.90
2022-09-09T16:46:32.813Z,99.90
2022-09-09T16:48:40.053Z,99.90
2022-09-09T16:50:48.151Z,99.90
2022-09-09T16:52:56.469Z,99.90
2022-09-09T16:55:03.810Z,99.90
2022-09-09T16:57:10.619Z,99.90
2022-09-09T16:59:19.187Z,99.90
2022-09-09T17:01:28.061Z,99.90
2022-09-09T17:03:35.919Z,99.90
2022-09-09T17:05:46.843Z,99.90
2022-09-09T17:07:54.005Z,99.90
2022-09-09T17:10:01.198Z,99.90
2022-09-09T17:12:08.881Z,99.90
2022-09-09T17:14:19.339Z,99.90
2022-09-09T17:16:29.593Z,99.90
2022-09-09T17:18:36.621Z,99.90
2022-09-09T17:20:46.902Z,99.90
2022-09-09T17:22:54.368Z,99.90
2022-09-09T17:25:01.548Z,99.90
2022-09-09T17:27:08.675Z,99.90
2022-09-09T17:29:15.699Z,99.90
2022-09-09T17:31:23.456Z,99.90
2022-09-09T17:33:33.079Z,99.90
2022-09-09T17:35:40.267Z,99.90
2022-09-09T17:37:47.498Z,99.90
2022-09-09T17:39:54.733Z,99.90
2022-09-09T17:42:01.765Z,99.90
2022-09-09T17:46:23.860Z,99.90
2022-09-09T17:48:34.367Z,99.90
2022-09-09T17:50:41.130Z,99.90
2022-09-09T17:52:48.164Z,99.90
2022-09-09T17:54:58.670Z,99.90
2022-09-09T17:57:05.751Z,99.90
2022-09-09T17:59:15.048Z,99.90
2022-09-09T18:01:23.619Z,99.90
2022-09-09T18:03:32.728Z,99.90
2022-09-09T18:05:39.593Z,99.90
2022-09-09T18:07:46.622Z,99.90
2022-09-09T18:09:53.707Z,99.90
2022-09-09T18:12:01.967Z,99.90
2022-09-09T18:14:11.703Z,99.90
2022-09-09T18:16:19.922Z,99.90
2022-09-09T18:18:27.398Z,99.90
2022-09-09T18:20:36.316Z,99.90
2022-09-09T18:22:43.365Z,99.90
2022-09-09T18:24:51.503Z,99.90
2022-09-09T18:26:58.383Z,99.90
2022-09-09T18:29:08.843Z,99.90
2022-09-09T18:31:17.681Z,99.90
2022-09-09T18:33:24.736Z,99.90
2022-09-09T18:35:31.716Z,99.90
2022-09-09T18:37:40.906Z,99.90
2022-09-09T18:39:48.213Z,99.90
2022-09-09T18:41:57.040Z,99.90
2022-09-09T18:44:05.407Z,99.90
2022-09-09T18:46:12.802Z,99.90
2022-09-09T18:48:20.282Z,99.90
2022-09-09T18:50:27.411Z,99.90
2022-09-09T18:52:34.540Z,99.90
2022-09-09T18:54:47.154Z,99.90
2022-09-09T18:56:54.531Z,99.90
2022-09-09T18:59:03.410Z,99.90
2022-09-09T19:01:14.230Z,99.90
2022-09-09T19:03:21.558Z,99.90
2022-09-09T19:05:28.535Z,99.90
2022-09-09T19:07:35.464Z,99.90
2022-09-09T19:09:44.335Z,99.90
2022-09-09T19:11:51.360Z,99.90
2022-09-09T19:14:00.155Z,99.90
2022-09-09T19:16:09.134Z,99.90
2022-09-09T19:18:16.644Z,99.90
2022-09-09T19:20:24.906Z,99.90
2022-09-09T19:22:32.595Z,99.90
2022-09-09T19:24:39.621Z,99.90
2022-09-09T19:26:50.236Z,99.90
2022-09-09T19:28:57.623Z,99.90
2022-09-09T19:31:07.563Z,99.90
2022-09-09T19:33:18.550Z,99.90
2022-09-09T19:35:25.620Z,99.90
2022-09-09T19:37:33.414Z,99.90
2022-09-09T19:39:40.832Z,99.90
2022-09-09T19:41:50.842Z,99.90
2022-09-09T19:44:03.164Z,99.90
2022-09-09T19:46:12.660Z,99.90
2022-09-09T19:48:19.509Z,99.90
2022-09-09T19:50:26.492Z,99.90
2022-09-09T19:52:33.411Z,99.90
2022-09-09T19:54:40.690Z,99.90
2022-09-09T19:56:49.366Z,99.90
2022-09-09T19:58:57.242Z,99.90
2022-09-09T20:01:10.784Z,99.90
2022-09-09T20:03:19.990Z,99.90
2022-09-09T20:05:27.154Z,99.90
2022-09-09T20:07:34.542Z,99.90
2022-09-09T20:09:41.720Z,99.90
2022-09-09T20:11:51.974Z,99.90
2022-09-09T20:13:59.829Z,99.90
2022-09-09T20:16:08.412Z,99.90
2022-09-09T20:18:15.976Z,99.90
2022-09-09T20:20:23.058Z,99.90
2022-09-09T20:22:30.393Z,99.90
2022-09-09T20:24:38.204Z,99.90
2022-09-09T20:26:45.779Z,99.90
2022-09-09T20:28:55.936Z,99.90
2022-09-09T20:31:08.099Z,99.90
2022-09-09T20:33:14.854Z,99.90
2022-09-09T20:35:22.236Z,99.90
2022-09-09T20:37:29.265Z,99.90
2022-09-09T20:39:37.148Z,99.90
2022-09-09T20:41:45.444Z,99.90
2022-09-09T20:43:55.513Z,99.90
2022-09-09T20:46:06.178Z,99.90
2022-09-09T20:48:13.573Z,99.90
2022-09-09T20:50:20.596Z,99.90
2022-09-09T20:52:27.884Z,99.90
2022-09-09T20:54:36.339Z,99.90
2022-09-09T20:56:45.215Z,99.90
2022-09-09T20:58:53.978Z,99.90
2022-09-09T21:01:01.544Z,99.90
2022-09-09T21:03:09.108Z,99.90
2022-09-09T21:05:17.232Z,99.90
2022-09-09T21:07:25.725Z,99.90
2022-09-09T21:09:33.783Z,99.90
2022-09-09T21:11:40.753Z,99.90
2022-09-09T21:13:48.195Z,99.90
2022-09-09T21:15:57.185Z,99.90
2022-09-09T21:18:04.046Z,99.90
2022-09-09T21:20:12.204Z,99.90
2022-09-09T21:22:19.534Z,99.90
2022-09-09T21:24:26.715Z,99.90
2022-09-09T21:26:34.051Z,99.90
2022-09-09T21:28:41.281Z,99.90
2022-09-09T21:30:52.366Z,99.90
2022-09-09T21:33:01.175Z,99.90
2022-09-09T21:35:09.606Z,99.90
2022-09-09T21:37:16.819Z,99.90
2022-09-09T21:39:24.306Z,99.90
2022-09-09T21:41:31.489Z,99.90
2022-09-09T21:43:38.928Z,99.90
2022-09-09T21:45:46.411Z,99.90
2022-09-09T21:47:53.856Z,99.90
2022-09-09T21:50:02.932Z,99.90
2022-09-09T21:52:10.119Z,99.90
2022-09-09T21:54:17.088Z,99.90
2022-09-09T21:56:24.741Z,99.90
2022-09-09T21:58:31.861Z,99.90
2022-09-09T22:00:39.352Z,99.90
2022-09-09T22:02:46.707Z,99.90
2022-09-09T22:04:53.660Z,99.90
2022-09-09T22:07:02.693Z,99.90
2022-09-09T22:09:09.663Z,99.90
2022-09-09T22:11:18.279Z,99.90
2022-09-09T22:13:25.252Z,99.90
2022-09-09T22:15:33.767Z,99.90
2022-09-09T22:17:40.956Z,99.90
2022-09-09T22:19:48.742Z,99.90
2022-09-09T22:21:55.783Z,99.90
2022-09-09T22:24:06.594Z,99.90
2022-09-09T22:26:14.592Z,99.90
2022-09-09T22:28:21.674Z,99.90
2022-09-09T22:30:29.521Z,99.90
2022-09-09T22:32:36.602Z,99.90
2022-09-09T22:34:44.097Z,99.90
2022-09-09T22:36:52.243Z,99.90
2022-09-09T22:38:59.584Z,99.90
2022-09-09T22:41:09.064Z,99.90
2022-09-09T22:43:19.588Z,99.90
2022-09-09T22:45:27.064Z,99.90
2022-09-09T22:47:33.983Z,99.90
2022-09-09T22:49:41.268Z,99.90
2022-09-09T22:51:48.350Z,99.90
2022-09-09T22:53:55.639Z,99.90
2022-09-09T22:56:03.943Z,99.90
2022-09-09T22:58:13.069Z,99.90
2022-09-09T23:00:20.396Z,99.90
2022-09-09T23:02:28.354Z,99.90
2022-09-09T23:04:35.328Z,99.90
2022-09-09T23:06:44.457Z,99.90
2022-09-09T23:08:53.732Z,99.90
2022-09-09T23:11:01.548Z,99.90
2022-09-09T23:13:09.996Z,99.90
2022-09-09T23:15:18.664Z,99.90
2022-09-09T23:17:26.197Z,99.90
2022-09-09T23:19:33.334Z,99.90
2022-09-09T23:21:40.646Z,99.90
2022-09-09T23:23:48.315Z,99.90
2022-09-09T23:25:55.333Z,99.90
2022-09-09T23:28:02.930Z,99.90
2022-09-09T23:30:11.127Z,99.90
2022-09-09T23:32:20.876Z,99.90
2022-09-09T23:34:27.954Z,99.90
2022-09-09T23:36:36.416Z,99.90
2022-09-09T23:38:44.723Z,99.90
2022-09-09T23:40:51.913Z,99.90
2022-09-09T23:42:59.143Z,99.90
2022-09-09T23:45:06.368Z,99.90
2022-09-09T23:47:13.508Z,99.90
2022-09-09T23:49:22.630Z,99.90
2022-09-09T23:51:32.219Z,99.90
2022-09-09T23:53:39.555Z,99.90
2022-09-09T23:55:47.093Z,99.90
2022-09-09T23:57:55.759Z,99.90
